createdAt,value
2024-05-09T00:00:43.491Z,4.55
2024-05-09T00:02:04.887Z,5.01
2024-05-09T00:03:25.941Z,4.66
2024-05-09T00:04:47.751Z,5.15
2024-05-09T00:06:09.295Z,5.59
2024-05-09T00:07:30.356Z,4.79
2024-05-09T00:08:51.398Z,4.28
2024-05-09T00:10:22.286Z,4.57
2024-05-09T00:11:36.324Z,4.83
2024-05-09T00:12:57.236Z,4.37
2024-05-09T00:14:18.728Z,3.34
2024-05-09T00:15:40.009Z,6.13
2024-05-09T00:17:01.713Z,4.91
2024-05-09T00:18:22.979Z,5.24
2024-05-09T00:19:44.490Z,4.79
2024-05-09T00:21:06.024Z,3.99
2024-05-09T00:22:27.573Z,3.87
2024-05-09T00:23:48.679Z,3.48
2024-05-09T00:25:10.003Z,4.07
2024-05-09T00:26:31.215Z,3.73
2024-05-09T00:27:52.721Z,3.44
2024-05-09T00:29:14.141Z,3.44
2024-05-09T00:30:37.338Z,6.06
2024-05-09T00:31:59.089Z,3.02
2024-05-09T00:33:20.152Z,3.93
2024-05-09T00:34:41.337Z,3.19
2024-05-09T00:36:02.536Z,2.94
2024-05-09T00:37:24.245Z,4.74
2024-05-09T00:38:45.636Z,3.54
2024-05-09T00:40:12.040Z,4.40
2024-05-09T00:41:30.535Z,3.19
2024-05-09T00:42:54.657Z,2.82
2024-05-09T00:44:15.957Z,2.30
2024-05-09T00:45:37.034Z,2.67
2024-05-09T00:46:59.636Z,2.96
2024-05-09T00:48:21.689Z,2.85
2024-05-09T00:49:43.107Z,3.71
2024-05-09T00:51:05.641Z,2.79
2024-05-09T00:52:29.632Z,3.61
2024-05-09T00:53:51.063Z,2.95
2024-05-09T00:55:12.862Z,3.44
2024-05-09T00:56:34.766Z,4.06
2024-05-09T00:57:56.197Z,3.67
2024-05-09T00:59:18.197Z,3.53
2024-05-09T01:00:41.110Z,3.46
2024-05-09T01:02:03.003Z,3.62
2024-05-09T01:03:24.649Z,3.12
2024-05-09T01:04:47.485Z,3.88
2024-05-09T01:06:09.428Z,3.63
2024-05-09T01:07:31.400Z,3.26
2024-05-09T01:08:54.686Z,3.41
2024-05-09T01:10:21.248Z,2.99
2024-05-09T01:11:40.163Z,3.21
2024-05-09T01:13:04.561Z,2.94
2024-05-09T01:14:28.543Z,2.83
2024-05-09T01:15:50.576Z,2.94
2024-05-09T01:17:12.518Z,3.45
2024-05-09T01:18:34.045Z,2.96
2024-05-09T01:19:56.512Z,2.59
2024-05-09T01:21:17.641Z,3.27
2024-05-09T01:22:39.085Z,2.79
2024-05-09T01:24:00.653Z,3.12
2024-05-09T01:25:23.571Z,3.87
2024-05-09T01:26:47.434Z,3.59
2024-05-09T01:29:30.816Z,2.87
2024-05-09T01:30:52.817Z,3.63
2024-05-09T01:32:14.066Z,3.17
2024-05-09T01:33:36.171Z,3.93
2024-05-09T01:34:57.732Z,3.57
2024-05-09T01:36:20.076Z,2.89
2024-05-09T01:37:41.064Z,3.55
2024-05-09T01:39:02.185Z,3.18
2024-05-09T01:40:33.463Z,3.11
2024-05-09T01:41:47.161Z,3.11
2024-05-09T01:43:09.905Z,2.97
2024-05-09T01:45:53.578Z,2.59
2024-05-09T01:47:15.195Z,3.21
2024-05-09T01:48:36.913Z,2.49
2024-05-09T01:49:59.629Z,2.66
2024-05-09T01:51:20.751Z,3.02
2024-05-09T01:52:42.548Z,2.68
2024-05-09T01:54:05.061Z,3.15
2024-05-09T01:55:28.006Z,3.01
2024-05-09T01:56:49.620Z,3.07
2024-05-09T01:58:10.825Z,3.13
2024-05-09T01:59:32.003Z,3.05
2024-05-09T02:00:53.510Z,3.14
2024-05-09T02:02:15.246Z,3.13
2024-05-09T02:03:36.702Z,2.88
2024-05-09T02:04:58.230Z,3.43
2024-05-09T02:06:19.678Z,3.33
2024-05-09T02:07:40.971Z,2.87
2024-05-09T02:09:02.172Z,2.75
2024-05-09T02:10:31.774Z,3.23
2024-05-09T02:11:49.151Z,3.04
2024-05-09T02:13:11.828Z,3.03
2024-05-09T02:14:35.285Z,2.44
2024-05-09T02:15:56.824Z,2.58
2024-05-09T02:17:20.299Z,2.96
2024-05-09T02:18:41.481Z,2.87
2024-05-09T02:20:05.993Z,2.82
2024-05-09T02:21:26.830Z,2.77
2024-05-09T02:22:48.388Z,2.97
2024-05-09T02:24:09.856Z,2.69
2024-05-09T02:25:33.001Z,3.15
2024-05-09T02:26:54.269Z,2.88
2024-05-09T02:28:18.356Z,2.87
2024-05-09T02:29:39.832Z,3.17
2024-05-09T02:31:00.720Z,3.57
2024-05-09T02:32:21.900Z,3.22
2024-05-09T02:33:43.731Z,3.09
2024-05-09T02:35:06.805Z,2.96
2024-05-09T02:36:28.765Z,3.29
2024-05-09T02:37:49.799Z,2.82
2024-05-09T02:39:11.057Z,3.31
2024-05-09T02:40:37.347Z,3.01
2024-05-09T02:43:17.938Z,2.29
2024-05-09T02:44:39.147Z,3.14
2024-05-09T02:46:00.252Z,3.86
2024-05-09T02:47:22.086Z,3.17
2024-05-09T02:48:43.607Z,2.74
2024-05-09T02:50:07.879Z,3.11
2024-05-09T02:51:29.101Z,3.14
2024-05-09T02:52:50.372Z,2.68
2024-05-09T02:54:12.743Z,2.57
2024-05-09T02:55:35.659Z,2.78
2024-05-09T02:56:57.538Z,2.76
2024-05-09T02:58:18.821Z,3.36
2024-05-09T02:59:39.734Z,3.19
2024-05-09T03:01:01.426Z,3.21
2024-05-09T03:02:22.872Z,2.97
2024-05-09T03:03:44.915Z,2.78
2024-05-09T03:05:09.389Z,2.97
2024-05-09T03:07:51.212Z,2.53
2024-05-09T03:09:13.074Z,2.46
2024-05-09T03:10:36.805Z,3.01
2024-05-09T03:11:58.671Z,2.95
2024-05-09T03:13:20.233Z,3.22
2024-05-09T03:14:41.194Z,2.22
2024-05-09T03:16:02.355Z,2.42
2024-05-09T03:17:24.971Z,3.08
2024-05-09T03:18:46.336Z,2.30
2024-05-09T03:20:14.560Z,3.31
2024-05-09T03:21:31.369Z,2.70
2024-05-09T03:22:56.330Z,2.68
2024-05-09T03:24:16.871Z,2.78
2024-05-09T03:25:37.915Z,2.76
2024-05-09T03:26:59.819Z,2.63
2024-05-09T03:28:21.290Z,2.66
2024-05-09T03:29:42.879Z,2.78
2024-05-09T03:31:03.985Z,3.07
2024-05-09T03:32:24.934Z,2.07
2024-05-09T03:33:49.623Z,2.47
2024-05-09T03:35:10.744Z,2.51
2024-05-09T03:36:31.781Z,2.30
2024-05-09T03:37:52.788Z,2.08
2024-05-09T03:39:14.674Z,2.23
2024-05-09T03:40:35.575Z,2.01
2024-05-09T03:41:57.034Z,2.20
2024-05-09T03:43:18.200Z,1.74
2024-05-09T03:44:40.358Z,1.77
2024-05-09T03:46:01.721Z,2.22
2024-05-09T03:47:22.956Z,2.28
2024-05-09T03:48:47.081Z,1.74
2024-05-09T03:50:15.150Z,1.91
2024-05-09T03:51:31.699Z,1.61
2024-05-09T03:52:52.736Z,1.72
2024-05-09T03:54:14.369Z,1.74
2024-05-09T03:55:36.186Z,1.76
2024-05-09T03:56:59.581Z,2.18
2024-05-09T03:58:20.930Z,2.14
2024-05-09T03:59:41.932Z,2.79
2024-05-09T04:02:30.528Z,2.08
2024-05-09T04:03:52.094Z,1.72
2024-05-09T04:05:13.552Z,1.66
2024-05-09T04:06:34.570Z,2.17
2024-05-09T04:07:55.908Z,1.79
2024-05-09T04:09:17.166Z,1.79
2024-05-09T04:10:39.485Z,2.15
2024-05-09T04:12:02.117Z,1.77
2024-05-09T04:13:23.141Z,1.61
2024-05-09T04:14:44.385Z,1.59
2024-05-09T04:16:08.034Z,2.06
2024-05-09T04:17:29.991Z,1.97
2024-05-09T04:18:57.311Z,2.26
2024-05-09T04:20:28.224Z,2.19
2024-05-09T04:21:41.293Z,2.26
2024-05-09T04:23:04.387Z,2.21
2024-05-09T04:24:27.358Z,2.27
2024-05-09T04:27:09.706Z,1.90
2024-05-09T04:28:30.900Z,1.84
2024-05-09T04:29:52.454Z,2.26
2024-05-09T04:31:13.496Z,2.08
2024-05-09T04:32:35.149Z,2.13
2024-05-09T04:33:57.448Z,1.92
2024-05-09T04:35:18.896Z,1.91
2024-05-09T04:36:43.207Z,2.12
2024-05-09T04:38:04.123Z,2.36
2024-05-09T04:39:25.383Z,1.37
2024-05-09T04:40:48.025Z,1.82
2024-05-09T04:42:09.523Z,1.94
2024-05-09T04:43:30.682Z,2.11
2024-05-09T04:44:56.429Z,1.48
2024-05-09T04:46:16.288Z,1.56
2024-05-09T04:47:37.434Z,1.87
2024-05-09T04:48:58.931Z,1.49
2024-05-09T04:50:29.353Z,1.78
2024-05-09T04:53:05.322Z,1.94
2024-05-09T04:54:34.208Z,2.08
2024-05-09T04:55:50.123Z,1.81
2024-05-09T04:57:11.550Z,1.59
2024-05-09T04:58:32.549Z,1.82
2024-05-09T04:59:53.603Z,1.96
2024-05-09T05:01:14.914Z,1.86
2024-05-09T05:02:36.230Z,1.82
2024-05-09T05:03:57.976Z,1.70
2024-05-09T05:05:19.467Z,1.54
2024-05-09T05:06:40.908Z,1.66
2024-05-09T05:08:03.163Z,1.46
2024-05-09T05:09:24.455Z,1.44
2024-05-09T05:10:46.786Z,1.48
2024-05-09T05:12:08.801Z,2.21
2024-05-09T05:13:33.030Z,1.49
2024-05-09T05:14:54.370Z,1.98
2024-05-09T05:16:16.047Z,1.72
2024-05-09T05:17:37.772Z,1.34
2024-05-09T05:19:02.081Z,1.24
2024-05-09T05:20:30.696Z,1.59
2024-05-09T05:21:50.166Z,1.51
2024-05-09T05:23:11.566Z,2.61
2024-05-09T05:24:33.040Z,2.50
2024-05-09T05:25:55.204Z,8.24
2024-05-09T05:27:16.784Z,4.43
2024-05-09T05:28:38.852Z,2.42
2024-05-09T05:30:00.193Z,7.48
2024-05-09T05:31:24.712Z,2.77
2024-05-09T05:32:45.777Z,2.58
2024-05-09T05:34:07.266Z,2.14
2024-05-09T05:35:28.874Z,2.24
2024-05-09T05:36:50.383Z,2.46
2024-05-09T05:38:11.643Z,3.31
2024-05-09T05:39:35.261Z,4.68
2024-05-09T05:40:56.524Z,3.38
2024-05-09T05:42:18.017Z,2.31
2024-05-09T05:43:39.608Z,2.14
2024-05-09T05:45:01.042Z,1.70
2024-05-09T05:46:22.095Z,1.65
2024-05-09T05:47:46.654Z,2.41
2024-05-09T05:49:08.125Z,4.53
2024-05-09T05:50:35.691Z,4.51
2024-05-09T05:51:56.739Z,4.28
2024-05-09T05:54:36.779Z,3.51
2024-05-09T05:55:57.726Z,3.38
2024-05-09T05:57:18.624Z,5.10
2024-05-09T05:58:39.710Z,3.72
2024-05-09T06:00:01.255Z,7.91
2024-05-09T06:01:22.570Z,3.98
2024-05-09T06:02:43.816Z,2.32
2024-05-09T06:04:05.349Z,2.16
2024-05-09T06:05:27.780Z,1.71
2024-05-09T06:06:48.814Z,4.55
2024-05-09T06:08:10.263Z,3.38
2024-05-09T06:09:31.684Z,1.63
2024-05-09T06:10:52.801Z,2.23
2024-05-09T06:12:14.357Z,2.18
2024-05-09T06:13:35.889Z,1.92
2024-05-09T06:14:56.861Z,1.65
2024-05-09T06:16:19.395Z,1.39
2024-05-09T06:17:40.864Z,1.84
2024-05-09T06:19:02.367Z,3.37
2024-05-09T06:20:34.565Z,8.07
2024-05-09T06:21:48.314Z,6.11
2024-05-09T06:23:10.429Z,3.11
2024-05-09T06:24:31.911Z,3.83
2024-05-09T06:25:53.210Z,2.30
2024-05-09T06:27:14.518Z,1.90
2024-05-09T06:28:35.505Z,3.19
2024-05-09T06:29:56.563Z,2.03
2024-05-09T06:31:17.658Z,1.33
2024-05-09T06:32:40.524Z,0.96
2024-05-09T06:34:02.115Z,0.91
2024-05-09T06:35:23.718Z,1.38
2024-05-09T06:36:45.140Z,2.79
2024-05-09T06:38:06.516Z,1.56
2024-05-09T06:39:27.796Z,1.39
2024-05-09T06:40:48.761Z,2.11
2024-05-09T06:42:10.046Z,3.57
2024-05-09T06:43:31.171Z,6.05
2024-05-09T06:44:52.498Z,6.58
2024-05-09T06:46:14.926Z,7.20
2024-05-09T06:48:58.315Z,12.13
2024-05-09T06:50:24.305Z,4.61
2024-05-09T06:51:44.701Z,4.24
2024-05-09T06:53:08.167Z,6.11
2024-05-09T06:54:29.715Z,3.26
2024-05-09T06:55:51.191Z,1.33
2024-05-09T06:57:12.234Z,1.79
2024-05-09T06:58:33.914Z,2.03
2024-05-09T06:59:55.376Z,1.91
2024-05-09T07:01:16.471Z,2.32
2024-05-09T07:02:37.857Z,1.88
2024-05-09T07:03:59.333Z,1.30
2024-05-09T07:05:20.959Z,2.12
2024-05-09T07:06:42.467Z,1.66
2024-05-09T07:08:03.781Z,2.94
2024-05-09T07:09:24.936Z,2.45
2024-05-09T07:10:46.384Z,1.99
2024-05-09T07:12:07.963Z,1.39
2024-05-09T07:13:30.356Z,3.42
2024-05-09T07:14:51.877Z,1.38
2024-05-09T07:16:14.824Z,2.23
2024-05-09T07:17:36.303Z,3.47
2024-05-09T07:18:57.742Z,1.36
2024-05-09T07:20:27.708Z,1.12
2024-05-09T07:21:42.213Z,1.02
2024-05-09T07:23:03.557Z,1.05
2024-05-09T07:24:24.848Z,1.17
2024-05-09T07:25:46.150Z,1.33
2024-05-09T07:27:07.214Z,1.08
2024-05-09T07:28:28.218Z,0.96
2024-05-09T07:29:49.277Z,0.99
2024-05-09T07:31:10.227Z,1.03
2024-05-09T07:32:31.779Z,5.33
2024-05-09T07:33:55.076Z,2.76
2024-05-09T07:35:16.231Z,1.38
2024-05-09T07:36:41.055Z,1.09
2024-05-09T07:38:02.318Z,0.97
2024-05-09T07:39:23.855Z,1.06
2024-05-09T07:40:45.465Z,0.91
2024-05-09T07:42:07.631Z,1.18
2024-05-09T07:43:29.044Z,1.06
2024-05-09T07:44:49.948Z,1.67
2024-05-09T07:47:13.943Z,2.13
2024-05-09T07:48:57.853Z,2.54
2024-05-09T07:53:16.869Z,1.15
2024-05-09T07:53:36.313Z,1.24
2024-05-09T07:54:30.779Z,2.29
2024-05-09T07:55:52.460Z,2.17
2024-05-09T07:57:13.923Z,3.76
2024-05-09T07:58:35.243Z,1.33
2024-05-09T07:59:56.399Z,1.78
2024-05-09T08:01:18.337Z,1.70
2024-05-09T08:02:39.417Z,0.87
2024-05-09T08:04:00.687Z,2.04
2024-05-09T08:05:22.219Z,1.98
2024-05-09T08:08:11.931Z,1.99
2024-05-09T08:09:33.879Z,0.93
2024-05-09T08:12:17.068Z,0.88
2024-05-09T08:13:38.051Z,1.23
2024-05-09T08:14:59.044Z,1.21
2024-05-09T08:16:20.115Z,1.00
2024-05-09T08:17:43.086Z,1.39
2024-05-09T08:19:04.341Z,1.02
2024-05-09T08:20:31.132Z,0.97
2024-05-09T08:21:49.195Z,1.04
2024-05-09T08:23:10.457Z,1.07
2024-05-09T08:24:32.295Z,0.92
2024-05-09T08:25:53.628Z,0.91
2024-05-09T08:27:16.822Z,2.21
2024-05-09T08:28:37.753Z,0.88
2024-05-09T08:29:59.097Z,0.76
2024-05-09T08:31:20.725Z,1.14
2024-05-09T08:32:42.492Z,0.69
2024-05-09T08:34:04.057Z,0.82
2024-05-09T08:35:25.512Z,0.94
2024-05-09T08:36:47.138Z,1.08
2024-05-09T08:38:08.399Z,1.09
2024-05-09T08:39:31.732Z,0.96
2024-05-09T08:40:53.138Z,0.97
2024-05-09T08:42:16.131Z,0.91
2024-05-09T08:43:39.875Z,0.98
2024-05-09T08:45:00.278Z,0.84
2024-05-09T08:46:21.565Z,1.37
2024-05-09T08:47:47.536Z,1.11
2024-05-09T08:49:08.902Z,1.33
2024-05-09T08:50:37.871Z,1.73
2024-05-09T08:53:14.216Z,1.13
2024-05-09T08:54:37.626Z,1.05
2024-05-09T08:56:01.544Z,1.07
2024-05-09T08:57:24.412Z,0.94
2024-05-09T09:00:12.498Z,0.90
2024-05-09T09:01:30.753Z,0.91
2024-05-09T09:02:56.470Z,2.08
2024-05-09T09:04:17.672Z,1.08
2024-05-09T09:05:39.822Z,0.91
2024-05-09T09:07:03.532Z,1.26
2024-05-09T09:08:25.195Z,0.77
2024-05-09T09:09:47.178Z,0.80
2024-05-09T09:11:10.570Z,0.71
2024-05-09T09:12:32.392Z,1.68
2024-05-09T09:13:54.868Z,1.02
2024-05-09T09:15:16.399Z,1.27
2024-05-09T09:16:37.663Z,0.68
2024-05-09T09:18:03.348Z,0.80
2024-05-09T09:19:24.540Z,0.97
2024-05-09T09:20:48.893Z,0.86
2024-05-09T09:22:12.547Z,0.83
2024-05-09T09:23:33.882Z,0.79
2024-05-09T09:24:55.418Z,1.84
2024-05-09T09:26:17.650Z,1.02
2024-05-09T09:27:39.310Z,0.99
2024-05-09T09:29:03.943Z,0.97
2024-05-09T09:30:36.181Z,1.09
2024-05-09T09:32:00.853Z,0.87
2024-05-09T09:33:23.050Z,1.12
2024-05-09T09:34:46.912Z,0.73
2024-05-09T09:36:11.205Z,0.83
2024-05-09T09:37:38.193Z,0.77
2024-05-09T09:38:59.540Z,1.23
2024-05-09T09:40:22.238Z,0.60
2024-05-09T09:41:43.907Z,1.07
2024-05-09T09:43:05.521Z,0.79
2024-05-09T09:44:27.068Z,0.82
2024-05-09T09:45:51.675Z,1.11
2024-05-09T09:47:13.352Z,0.82
2024-05-09T09:49:59.163Z,0.70
2024-05-09T09:51:20.005Z,1.16
2024-05-09T09:52:44.205Z,1.00
2024-05-09T09:54:05.725Z,0.91
2024-05-09T09:55:28.652Z,0.84
2024-05-09T09:56:50.457Z,0.83
2024-05-09T09:58:13.924Z,1.06
2024-05-09T09:59:34.619Z,0.71
2024-05-09T10:00:56.111Z,1.26
2024-05-09T10:02:18.646Z,0.69
2024-05-09T10:03:41.884Z,1.37
2024-05-09T10:05:05.310Z,5.05
2024-05-09T10:06:26.395Z,1.01
2024-05-09T10:07:47.756Z,0.92
2024-05-09T10:09:12.168Z,1.00
2024-05-09T10:10:34.105Z,0.77
2024-05-09T10:12:00.152Z,1.04
2024-05-09T10:13:22.050Z,1.26
2024-05-09T10:14:49.588Z,1.33
2024-05-09T10:16:16.481Z,0.91
2024-05-09T10:17:54.963Z,0.87
2024-05-09T10:19:26.742Z,0.88
2024-05-09T10:20:48.578Z,0.68
2024-05-09T10:22:09.926Z,0.90
2024-05-09T10:23:32.252Z,0.89
2024-05-09T10:24:53.525Z,0.76
2024-05-09T10:26:15.005Z,0.55
2024-05-09T10:27:39.107Z,0.85
2024-05-09T10:29:10.456Z,1.28
2024-05-09T10:30:36.113Z,0.73
2024-05-09T10:31:55.181Z,0.73
2024-05-09T10:33:17.315Z,0.77
2024-05-09T10:34:38.837Z,1.33
2024-05-09T10:36:02.042Z,0.87
2024-05-09T10:37:23.150Z,0.70
2024-05-09T10:38:44.388Z,0.71
2024-05-09T10:40:11.934Z,0.85
2024-05-09T10:41:29.255Z,0.74
2024-05-09T10:42:50.192Z,0.62
2024-05-09T10:44:13.082Z,0.63
2024-05-09T10:45:34.626Z,0.64
2024-05-09T10:46:57.865Z,0.56
2024-05-09T10:48:19.079Z,0.52
2024-05-09T10:49:42.299Z,0.87
2024-05-09T10:51:06.458Z,0.80
2024-05-09T10:52:28.520Z,0.60
2024-05-09T10:53:49.483Z,0.58
2024-05-09T10:55:11.681Z,0.53
2024-05-09T10:56:33.462Z,0.56
2024-05-09T10:57:54.872Z,0.63
2024-05-09T10:59:16.191Z,0.65
2024-05-09T11:00:37.252Z,0.56
2024-05-09T11:01:59.163Z,0.70
2024-05-09T11:03:22.038Z,1.01
2024-05-09T11:04:45.677Z,2.38
2024-05-09T11:06:07.307Z,0.76
2024-05-09T11:07:28.878Z,0.57
2024-05-09T11:08:50.540Z,0.58
2024-05-09T11:10:14.858Z,0.67
2024-05-09T11:11:36.933Z,0.59
2024-05-09T11:13:03.156Z,0.89
2024-05-09T11:14:27.819Z,0.57
2024-05-09T11:15:49.295Z,0.60
2024-05-09T11:17:11.089Z,0.53
2024-05-09T11:18:36.219Z,0.72
2024-05-09T11:19:55.184Z,0.71
2024-05-09T11:21:16.317Z,0.64
2024-05-09T11:22:37.926Z,0.78
2024-05-09T11:23:59.392Z,0.60
2024-05-09T11:25:22.064Z,0.77
2024-05-09T11:26:43.623Z,0.85
2024-05-09T11:28:05.279Z,0.85
2024-05-09T11:29:35.725Z,0.88
2024-05-09T11:31:06.631Z,0.60
2024-05-09T11:32:28.383Z,0.74
2024-05-09T11:33:49.637Z,0.70
2024-05-09T11:35:14.825Z,0.81
2024-05-09T11:36:36.151Z,0.67
2024-05-09T11:37:57.388Z,1.23
2024-05-09T11:39:22.002Z,1.09
2024-05-09T11:40:43.140Z,0.71
2024-05-09T11:42:04.556Z,0.79
2024-05-09T11:43:25.527Z,1.78
2024-05-09T11:44:46.919Z,1.05
2024-05-09T11:46:11.012Z,0.70
2024-05-09T11:47:32.339Z,0.76
2024-05-09T11:48:54.028Z,0.78
2024-05-09T11:50:22.688Z,4.85
2024-05-09T11:51:38.944Z,2.43
2024-05-09T11:53:00.166Z,2.35
2024-05-09T11:54:21.756Z,1.12
2024-05-09T11:55:43.122Z,0.79
2024-05-09T11:57:04.280Z,0.55
2024-05-09T11:58:25.861Z,0.50
2024-05-09T11:59:48.298Z,0.53
2024-05-09T12:01:09.593Z,5.84
2024-05-09T12:02:30.837Z,1.04
2024-05-09T12:03:54.319Z,0.70
2024-05-09T12:05:17.174Z,0.51
2024-05-09T12:06:39.085Z,0.56
2024-05-09T12:08:00.077Z,0.68
2024-05-09T12:09:21.149Z,0.47
2024-05-09T12:10:42.436Z,0.71
2024-05-09T12:12:04.483Z,0.46
2024-05-09T12:13:27.482Z,0.51
2024-05-09T12:14:49.045Z,0.54
2024-05-09T12:16:10.254Z,0.52
2024-05-09T12:17:31.899Z,0.67
2024-05-09T12:18:53.608Z,0.85
2024-05-09T12:20:21.499Z,0.73
2024-05-09T12:21:38.939Z,0.76
2024-05-09T12:24:04.657Z,0.81
2024-05-09T12:45:20.474Z,0.74
2024-05-09T12:46:42.440Z,0.94
2024-05-09T12:48:04.496Z,0.70
2024-05-09T12:49:26.425Z,0.78
2024-05-09T12:50:48.161Z,1.05
